Time;durP1;ratioP1;P1;durP2;ratioP2;P2;SDS_P1;SDS_P2;PMS_P1;PMS_P2;Temp;Humidity;BMP_temperature;BMP_pressure;BME280_temperature;BME280_humidity;BME280_pressure;Samples;Min_cycle;Max_cycle;Signal;HPM_P1;HPM_P2
2023/12/05 00:00:46;;;;;;;74.97;25.13;;;;;;;;;;5076975;28;20412;-69
2023/12/05 00:03:13;;;;;;;64.30;22.33;;;;;;;;;;5076235;28;20424;-69
2023/12/05 00:05:40;;;;;;;60.67;21.90;;;;;;;;;;5077507;28;20514;-68
2023/12/05 00:08:07;;;;;;;70.43;23.97;;;;;;;;;;5075809;28;20438;-68
2023/12/05 00:10:34;;;;;;;73.67;24.53;;;;;;;;;;5092389;28;20445;-69
2023/12/05 00:13:00;;;;;;;69.57;23.70;;;;;;;;;;5092193;28;20441;-68
2023/12/05 00:15:27;;;;;;;65.70;23.90;;;;;;;;;;5093210;28;20440;-69
2023/12/05 00:17:54;;;;;;;74.03;24.47;;;;;;;;;;5076944;28;20446;-69
2023/12/05 00:20:21;;;;;;;71.27;24.93;;;;;;;;;;5075497;28;20425;-68
2023/12/05 00:22:48;;;;;;;77.97;26.53;;;;;;;;;;5092439;28;20450;-68
2023/12/05 00:25:15;;;;;;;65.23;24.23;;;;;;;;;;5076858;28;20451;-69
2023/12/05 00:27:41;;;;;;;67.63;26.03;;;;;;;;;;5076467;28;20428;-69
2023/12/05 00:30:08;;;;;;;79.47;26.53;;;;;;;;;;5075776;28;20530;-68
2023/12/05 00:32:35;;;;;;;77.67;24.70;;;;;;;;;;5076854;28;20428;-69
2023/12/05 00:35:03;;;;;;;60.77;23.97;;;;;;;;;;5058788;28;20425;-69
2023/12/05 00:37:29;;;;;;;65.93;23.67;;;;;;;;;;5075669;28;20511;-69
2023/12/05 00:40:14;;;;;;;73.57;25.47;;;;;;;;;;5092417;28;20483;-69
2023/12/05 00:42:40;;;;;;;82.10;29.03;;;;;;;;;;5092087;28;20417;-68
2023/12/05 00:45:08;;;;;;;88.47;33.80;;;;;;;;;;5075493;28;20997;-69
2023/12/05 00:47:34;;;;;;;89.70;30.33;;;;;;;;;;5075045;28;20439;-68
2023/12/05 00:53:56;;;;;;;78.87;28.00;;;;;;;;;;5076294;28;20754;-68
2023/12/05 00:56:22;;;;;;;83.33;25.33;;;;;;;;;;5092075;28;20431;-68
2023/12/05 00:58:49;;;;;;;95.67;30.77;;;;;;;;;;5074584;28;20420;-68
2023/12/05 01:01:17;;;;;;;81.63;25.93;;;;;;;;;;5075059;28;20428;-68
2023/12/05 01:03:44;;;;;;;76.27;26.97;;;;;;;;;;5075404;28;20416;-68
2023/12/05 01:06:11;;;;;;;89.90;26.20;;;;;;;;;;5075651;28;20456;-68
2023/12/05 01:08:37;;;;;;;88.93;27.07;;;;;;;;;;5074717;28;20429;-69
2023/12/05 01:11:04;;;;;;;88.07;26.63;;;;;;;;;;5091126;28;20452;-68
2023/12/05 01:49:43;;;;;;;54.57;19.37;;;;;;;;;;5054961;28;20527;-68
2023/12/05 01:52:10;;;;;;;56.70;20.03;;;;;;;;;;5037228;28;20461;-68
2023/12/05 01:54:37;;;;;;;56.63;18.20;;;;;;;;;;5070749;28;20723;-68
2023/12/05 01:57:05;;;;;;;56.33;19.90;;;;;;;;;;5069855;28;20985;-69
2023/12/05 01:59:31;;;;;;;60.10;20.13;;;;;;;;;;5070081;28;20413;-69
2023/12/05 02:01:58;;;;;;;57.73;20.97;;;;;;;;;;5053629;28;20456;-68
2023/12/05 02:04:24;;;;;;;65.20;22.20;;;;;;;;;;5053367;28;20460;-68
2023/12/05 02:06:51;;;;;;;60.73;20.70;;;;;;;;;;5054571;28;20488;-68
2023/12/05 02:09:36;;;;;;;59.83;21.40;;;;;;;;;;5056129;28;20460;-68
2023/12/05 02:12:03;;;;;;;57.47;21.13;;;;;;;;;;5057256;28;20508;-69
2023/12/05 02:14:30;;;;;;;70.87;25.23;;;;;;;;;;5074488;28;20479;-68
2023/12/05 02:17:06;;;;;;;78.23;25.20;;;;;;;;;;5057060;28;20421;-68
2023/12/05 02:19:42;;;;;;;69.93;24.00;;;;;;;;;;5074102;28;20466;-68
2023/12/05 02:22:17;;;;;;;71.13;24.07;;;;;;;;;;5073214;28;20939;-68
2023/12/05 02:24:52;;;;;;;59.53;22.30;;;;;;;;;;5056408;28;20497;-68
2023/12/05 02:27:19;;;;;;;68.67;23.77;;;;;;;;;;5056747;28;20907;-68
2023/12/05 02:29:50;;;;;;;68.00;23.27;;;;;;;;;;5074622;28;20463;-68
2023/12/05 02:32:17;;;;;;;70.60;23.57;;;;;;;;;;5056641;28;20450;-68
2023/12/05 02:34:44;;;;;;;66.10;23.00;;;;;;;;;;5073382;28;20477;-68
2023/12/05 02:37:25;;;;;;;67.50;23.00;;;;;;;;;;5056848;28;20424;-68
2023/12/05 02:40:07;;;;;;;64.60;24.43;;;;;;;;;;5056126;28;20815;-68
2023/12/05 02:42:34;;;;;;;65.57;23.83;;;;;;;;;;5073994;28;20464;-68
2023/12/05 02:45:01;;;;;;;67.10;23.10;;;;;;;;;;5056044;28;20475;-68
2023/12/05 02:47:29;;;;;;;63.70;23.27;;;;;;;;;;5056529;28;20436;-68
2023/12/05 02:50:17;;;;;;;71.60;24.97;;;;;;;;;;5072762;28;20883;-68
2023/12/05 02:52:44;;;;;;;67.53;24.40;;;;;;;;;;5056312;28;20800;-68
2023/12/05 02:55:11;;;;;;;59.43;21.10;;;;;;;;;;5072595;28;20436;-68
2023/12/05 02:57:37;;;;;;;73.40;23.40;;;;;;;;;;5072710;28;20428;-69
2023/12/05 03:00:04;;;;;;;66.53;24.80;;;;;;;;;;5073535;28;20432;-68
2023/12/05 03:02:31;;;;;;;59.83;22.90;;;;;;;;;;5072282;28;20428;-69
2023/12/05 03:04:58;;;;;;;72.87;25.37;;;;;;;;;;5055773;28;20447;-68
2023/12/05 03:07:24;;;;;;;64.97;22.43;;;;;;;;;;5055029;28;20440;-68
2023/12/05 03:09:51;;;;;;;61.80;22.53;;;;;;;;;;5055631;28;20464;-69
2023/12/05 03:12:18;;;;;;;56.73;21.43;;;;;;;;;;5072113;28;20428;-69
2023/12/05 03:14:44;;;;;;;61.63;21.70;;;;;;;;;;5055553;28;20470;-69
2023/12/05 03:17:12;;;;;;;68.83;23.00;;;;;;;;;;5055849;28;20420;-68
2023/12/05 03:19:39;;;;;;;65.77;22.13;;;;;;;;;;5072373;28;20451;-69
2023/12/05 03:22:06;;;;;;;66.60;23.00;;;;;;;;;;5055673;28;20429;-69
2023/12/05 03:24:33;;;;;;;65.47;22.67;;;;;;;;;;5073226;28;20444;-68
2023/12/05 03:26:59;;;;;;;63.93;21.23;;;;;;;;;;5073255;28;20471;-68
2023/12/05 03:29:26;;;;;;;65.70;22.80;;;;;;;;;;5055890;28;20424;-68
2023/12/05 03:31:53;;;;;;;64.77;22.13;;;;;;;;;;5056001;28;20759;-68
2023/12/05 03:34:20;;;;;;;68.10;23.23;;;;;;;;;;5055433;28;20444;-68
2023/12/05 03:36:47;;;;;;;54.53;22.10;;;;;;;;;;5039090;28;20855;-68
2023/12/05 03:39:14;;;;;;;55.03;21.27;;;;;;;;;;5072357;28;20908;-68
2023/12/05 03:41:43;;;;;;;57.17;21.27;;;;;;;;;;5055479;28;20432;-68
2023/12/05 03:44:09;;;;;;;57.07;21.17;;;;;;;;;;5072200;28;20429;-68
2023/12/05 03:46:36;;;;;;;66.07;21.73;;;;;;;;;;5073658;28;20455;-68
2023/12/05 03:49:03;;;;;;;60.67;20.43;;;;;;;;;;5072133;28;20428;-68
2023/12/05 03:51:30;;;;;;;56.37;20.53;;;;;;;;;;5055379;28;20416;-68
2023/12/05 03:53:56;;;;;;;59.10;21.87;;;;;;;;;;5071999;28;20428;-68
2023/12/05 03:56:23;;;;;;;66.53;22.83;;;;;;;;;;5073377;28;20412;-68
2023/12/05 03:58:50;;;;;;;57.57;20.60;;;;;;;;;;5055412;28;20811;-68
2023/12/05 04:01:17;;;;;;;52.87;20.70;;;;;;;;;;5073838;28;20717;-68
2023/12/05 04:03:44;;;;;;;51.03;20.70;;;;;;;;;;5055317;28;20439;-68
2023/12/05 04:06:21;;;;;;;64.97;20.53;;;;;;;;;;5055179;28;20468;-68
2023/12/05 04:08:48;;;;;;;47.23;19.47;;;;;;;;;;5072060;28;20422;-68
2023/12/05 04:11:15;;;;;;;59.50;20.27;;;;;;;;;;5071643;28;20479;-68
2023/12/05 04:13:42;;;;;;;65.37;20.03;;;;;;;;;;5072197;28;20539;-68
2023/12/05 04:16:09;;;;;;;50.80;17.77;;;;;;;;;;5071662;28;20462;-68
2023/12/05 04:18:35;;;;;;;57.40;19.20;;;;;;;;;;5055177;28;20494;-68
2023/12/05 04:21:02;;;;;;;51.33;19.87;;;;;;;;;;5072370;28;20420;-68
2023/12/05 04:23:29;;;;;;;51.27;20.13;;;;;;;;;;5071722;28;20527;-68
2023/12/05 04:25:55;;;;;;;60.37;19.70;;;;;;;;;;5056710;28;20514;-68
2023/12/05 04:28:22;;;;;;;67.67;23.87;;;;;;;;;;5075482;28;20842;-68
2023/12/05 04:30:49;;;;;;;65.47;20.93;;;;;;;;;;5058581;28;20992;-68
2023/12/05 04:33:15;;;;;;;73.53;22.00;;;;;;;;;;5076537;28;20423;-68
2023/12/05 04:35:42;;;;;;;74.10;22.57;;;;;;;;;;5076210;28;20753;-68
2023/12/05 04:38:09;;;;;;;87.43;24.03;;;;;;;;;;5058552;28;20428;-68
2023/12/05 04:40:35;;;;;;;95.00;24.57;;;;;;;;;;5076196;28;20432;-68
2023/12/05 04:43:02;;;;;;;76.40;22.67;;;;;;;;;;5042227;28;20847;-68
2023/12/05 04:45:29;;;;;;;78.13;23.63;;;;;;;;;;5075423;28;20466;-68
2023/12/05 04:47:56;;;;;;;91.03;22.93;;;;;;;;;;5058865;28;20763;-68
2023/12/05 04:50:23;;;;;;;99.07;24.63;;;;;;;;;;5074899;28;20428;-68
2023/12/05 04:52:50;;;;;;;95.97;25.17;;;;;;;;;;5058285;28;20737;-68
2023/12/05 04:55:16;;;;;;;96.57;28.07;;;;;;;;;;5075535;28;20431;-70
2023/12/05 04:57:43;;;;;;;107.77;26.73;;;;;;;;;;5056897;28;20931;-70
2023/12/05 05:00:12;;;;;;;104.50;27.20;;;;;;;;;;5058387;28;20429;-70
2023/12/05 05:02:39;;;;;;;103.93;27.93;;;;;;;;;;5059060;28;20523;-70
2023/12/05 05:05:06;;;;;;;103.80;28.27;;;;;;;;;;5058077;28;20447;-69
2023/12/05 05:07:34;;;;;;;126.67;30.87;;;;;;;;;;5057917;28;20472;-70
2023/12/05 05:10:00;;;;;;;127.60;32.63;;;;;;;;;;5058163;28;20470;-70
2023/12/05 05:12:27;;;;;;;124.90;29.37;;;;;;;;;;5074908;28;20424;-70
2023/12/05 05:15:12;;;;;;;113.83;29.37;;;;;;;;;;5043867;28;20490;-70
2023/12/05 05:17:39;;;;;;;99.90;28.33;;;;;;;;;;5075496;28;20420;-69
2023/12/05 05:20:06;;;;;;;99.57;27.80;;;;;;;;;;5076258;28;20755;-71
2023/12/05 05:22:33;;;;;;;113.03;27.50;;;;;;;;;;5057732;28;20416;-70
2023/12/05 05:24:59;;;;;;;115.83;28.03;;;;;;;;;;5057815;28;20434;-69
2023/12/05 05:28:02;;;;;;;89.93;24.80;;;;;;;;;;5075154;28;20886;-68
2023/12/05 05:30:29;;;;;;;102.70;25.10;;;;;;;;;;5075663;28;20425;-68
2023/12/05 05:32:59;;;;;;;127.93;28.87;;;;;;;;;;5074173;28;20531;-68
2023/12/05 05:35:27;;;;;;;109.67;28.60;;;;;;;;;;5075059;28;20880;-68
2023/12/05 05:37:54;;;;;;;122.60;29.37;;;;;;;;;;5057308;28;20493;-68
2023/12/05 05:40:21;;;;;;;128.97;29.27;;;;;;;;;;5074276;28;20412;-68
2023/12/05 05:42:48;;;;;;;112.90;27.53;;;;;;;;;;5058373;28;20803;-68
2023/12/05 05:45:15;;;;;;;121.50;29.33;;;;;;;;;;5058300;28;20498;-68
2023/12/05 05:47:42;;;;;;;135.17;32.37;;;;;;;;;;5057625;28;20966;-68
2023/12/05 05:50:09;;;;;;;120.53;31.10;;;;;;;;;;5057477;28;20452;-68
2023/12/05 05:52:36;;;;;;;130.00;31.73;;;;;;;;;;5074642;28;20432;-68
2023/12/05 05:55:03;;;;;;;134.27;30.73;;;;;;;;;;5057172;28;20481;-68
2023/12/05 05:57:30;;;;;;;120.73;30.23;;;;;;;;;;5074610;28;20423;-68
2023/12/05 05:59:56;;;;;;;139.10;33.83;;;;;;;;;;5073864;28;20431;-69
2023/12/05 06:02:23;;;;;;;102.73;27.57;;;;;;;;;;5057471;28;20803;-70
2023/12/05 06:04:50;;;;;;;149.23;35.53;;;;;;;;;;5073362;28;20416;-70
2023/12/05 06:07:17;;;;;;;144.33;34.30;;;;;;;;;;5073246;28;20856;-70
2023/12/05 06:09:47;;;;;;;150.40;35.37;;;;;;;;;;5074378;28;21004;-70
2023/12/05 06:12:14;;;;;;;138.30;33.10;;;;;;;;;;5057719;28;20436;-70
2023/12/05 06:14:41;;;;;;;143.10;34.10;;;;;;;;;;5041363;28;20467;-70
2023/12/05 06:17:09;;;;;;;141.50;35.67;;;;;;;;;;5075182;28;20934;-70
2023/12/05 06:19:35;;;;;;;143.27;33.63;;;;;;;;;;5040738;28;20430;-70
2023/12/05 06:22:03;;;;;;;119.47;31.73;;;;;;;;;;5058716;28;20467;-72
2023/12/05 06:24:30;;;;;;;131.43;33.30;;;;;;;;;;5074589;28;20428;-71
2023/12/05 06:26:57;;;;;;;157.07;37.20;;;;;;;;;;5072949;28;20551;-69
2023/12/05 06:29:23;;;;;;;158.30;34.20;;;;;;;;;;5073436;28;20782;-69
2023/12/05 06:31:50;;;;;;;190.33;38.50;;;;;;;;;;5056514;28;20430;-69
2023/12/05 06:34:17;;;;;;;162.80;35.37;;;;;;;;;;5056229;28;20429;-69
2023/12/05 06:36:44;;;;;;;166.83;36.53;;;;;;;;;;5056237;28;20433;-69
2023/12/05 06:39:11;;;;;;;163.17;37.00;;;;;;;;;;5056405;28;20431;-69
2023/12/05 06:41:38;;;;;;;161.70;35.53;;;;;;;;;;5056671;28;20451;-71
2023/12/05 06:44:05;;;;;;;176.13;38.03;;;;;;;;;;5072367;28;20527;-69
2023/12/05 06:46:31;;;;;;;171.23;34.13;;;;;;;;;;5073577;28;20505;-69
2023/12/05 06:48:59;;;;;;;130.07;33.20;;;;;;;;;;5039204;28;20432;-69
2023/12/05 06:51:25;;;;;;;145.97;34.23;;;;;;;;;;5056426;28;20424;-69
2023/12/05 06:53:52;;;;;;;123.10;30.57;;;;;;;;;;5056207;28;20436;-69
2023/12/05 06:56:22;;;;;;;133.23;33.00;;;;;;;;;;5073415;28;20421;-69
2023/12/05 06:58:48;;;;;;;150.33;35.30;;;;;;;;;;5055778;28;20436;-69
2023/12/05 07:01:16;;;;;;;181.10;38.73;;;;;;;;;;5072620;28;20412;-69
2023/12/05 07:03:43;;;;;;;183.30;39.20;;;;;;;;;;5056052;28;20428;-69
2023/12/05 07:06:22;;;;;;;130.20;31.80;;;;;;;;;;5055935;28;20448;-69
2023/12/05 07:08:49;;;;;;;142.47;33.27;;;;;;;;;;5074275;28;20756;-69
2023/12/05 07:11:16;;;;;;;158.13;36.97;;;;;;;;;;5056202;28;20455;-69
2023/12/05 07:13:45;;;;;;;127.83;32.97;;;;;;;;;;5039449;28;20453;-69
2023/12/05 07:16:11;;;;;;;155.10;35.87;;;;;;;;;;5039414;28;20915;-68
2023/12/05 07:18:38;;;;;;;161.07;35.33;;;;;;;;;;5056413;28;20428;-69
2023/12/05 07:21:08;;;;;;;141.83;34.27;;;;;;;;;;5056487;28;20506;-70
2023/12/05 07:23:36;;;;;;;115.90;30.53;;;;;;;;;;5056764;28;20835;-70
2023/12/05 07:26:04;;;;;;;91.27;26.17;;;;;;;;;;5055765;28;20424;-70
2023/12/05 07:28:30;;;;;;;76.27;23.17;;;;;;;;;;5072386;28;20429;-70
2023/12/05 07:30:57;;;;;;;66.70;22.67;;;;;;;;;;5056164;28;20432;-70
2023/12/05 07:33:24;;;;;;;58.43;20.43;;;;;;;;;;5056450;28;20436;-69
2023/12/05 07:35:52;;;;;;;55.33;18.80;;;;;;;;;;5074315;28;20527;-69
2023/12/05 07:38:19;;;;;;;58.60;18.70;;;;;;;;;;5055677;28;20433;-68
2023/12/05 07:40:46;;;;;;;58.00;20.03;;;;;;;;;;5072591;28;20452;-69
2023/12/05 07:43:13;;;;;;;50.47;18.80;;;;;;;;;;5072490;28;20465;-69
2023/12/05 07:45:40;;;;;;;48.77;17.70;;;;;;;;;;5072572;28;20432;-69
2023/12/05 07:48:07;;;;;;;45.07;16.90;;;;;;;;;;5055437;28;20807;-71
2023/12/05 07:50:35;;;;;;;41.53;16.53;;;;;;;;;;5055998;28;20468;-71
2023/12/05 07:53:02;;;;;;;35.23;14.23;;;;;;;;;;5072746;28;20459;-71
2023/12/05 07:55:29;;;;;;;46.57;16.80;;;;;;;;;;5073448;28;20417;-71
2023/12/05 07:57:56;;;;;;;46.03;16.43;;;;;;;;;;5073338;28;20437;-70
2023/12/05 08:00:24;;;;;;;49.90;16.90;;;;;;;;;;5072620;28;20521;-70
2023/12/05 08:06:50;;;;;;;48.33;16.10;;;;;;;;;;5076870;28;20774;-70
2023/12/05 08:09:17;;;;;;;56.63;19.10;;;;;;;;;;5076873;28;20434;-70
2023/12/05 08:11:44;;;;;;;56.53;20.13;;;;;;;;;;5059500;28;20769;-71
2023/12/05 08:14:11;;;;;;;55.70;19.47;;;;;;;;;;5042628;28;20445;-69
2023/12/05 08:16:39;;;;;;;50.80;19.40;;;;;;;;;;5059616;28;20433;-72
2023/12/05 08:19:07;;;;;;;61.83;22.67;;;;;;;;;;5059082;28;20494;-70
2023/12/05 08:21:34;;;;;;;59.33;21.70;;;;;;;;;;5059651;28;20754;-69
2023/12/05 08:24:01;;;;;;;54.60;21.33;;;;;;;;;;5077498;28;20507;-68
2023/12/05 08:26:29;;;;;;;53.10;22.27;;;;;;;;;;5059411;28;20466;-71
2023/12/05 08:28:56;;;;;;;66.07;23.63;;;;;;;;;;5075797;28;20969;-71
2023/12/05 08:31:24;;;;;;;60.37;24.37;;;;;;;;;;5075407;28;20424;-71
2023/12/05 08:33:52;;;;;;;84.00;30.43;;;;;;;;;;5059441;28;20436;-70
2023/12/05 08:36:20;;;;;;;66.33;26.63;;;;;;;;;;5075743;28;20874;-69
2023/12/05 08:38:47;;;;;;;58.80;24.77;;;;;;;;;;5076044;28;20431;-70
2023/12/05 08:41:20;;;;;;;72.80;26.47;;;;;;;;;;5058643;28;20428;-70
2023/12/05 08:43:47;;;;;;;75.70;27.13;;;;;;;;;;5058670;28;20941;-68
2023/12/05 08:46:15;;;;;;;78.77;28.73;;;;;;;;;;5058713;28;20420;-70
2023/12/05 08:48:42;;;;;;;88.53;30.17;;;;;;;;;;5075614;28;20427;-70
2023/12/05 08:51:10;;;;;;;75.40;28.77;;;;;;;;;;5042137;28;20442;-69
2023/12/05 08:53:40;;;;;;;81.47;28.40;;;;;;;;;;5042656;28;20440;-67
2023/12/05 08:56:07;;;;;;;71.33;25.47;;;;;;;;;;5059007;28;20480;-70
2023/12/05 08:58:34;;;;;;;102.70;34.07;;;;;;;;;;5075288;28;20424;-70
2023/12/05 09:01:04;;;;;;;106.60;37.00;;;;;;;;;;5077376;28;20389;-68
2023/12/05 09:03:31;;;;;;;101.60;37.10;;;;;;;;;;5074915;28;20428;-69
2023/12/05 09:05:58;;;;;;;114.73;39.77;;;;;;;;;;5041704;28;20444;-69
2023/12/05 09:08:25;;;;;;;109.33;39.07;;;;;;;;;;5058245;28;20464;-70
2023/12/05 09:10:55;;;;;;;111.10;39.70;;;;;;;;;;5073756;28;20527;-70
2023/12/05 09:13:22;;;;;;;109.10;38.67;;;;;;;;;;5058131;28;20452;-70
2023/12/05 09:15:51;;;;;;;96.27;35.43;;;;;;;;;;5074859;28;20447;-69
2023/12/05 09:18:18;;;;;;;101.17;37.03;;;;;;;;;;5075448;28;20420;-67
2023/12/05 09:20:45;;;;;;;106.43;39.20;;;;;;;;;;5057905;28;20523;-69
2023/12/05 09:23:12;;;;;;;92.43;38.13;;;;;;;;;;5057682;28;20463;-69
2023/12/05 09:25:42;;;;;;;78.67;33.00;;;;;;;;;;5057639;28;20511;-70
2023/12/05 09:28:09;;;;;;;71.67;30.10;;;;;;;;;;5057426;28;20457;-69
2023/12/05 09:30:36;;;;;;;65.13;26.30;;;;;;;;;;5057850;28;20798;-70
2023/12/05 09:33:04;;;;;;;52.67;23.63;;;;;;;;;;5058107;28;20432;-70
2023/12/05 09:35:31;;;;;;;67.27;27.60;;;;;;;;;;5075409;28;20827;-70
2023/12/05 09:38:00;;;;;;;64.53;25.63;;;;;;;;;;5074165;28;20531;-68
2023/12/05 09:40:27;;;;;;;56.70;23.63;;;;;;;;;;5075137;28;20435;-69
2023/12/05 09:42:54;;;;;;;48.33;21.60;;;;;;;;;;5057346;28;20478;-68
2023/12/05 09:45:24;;;;;;;46.23;20.27;;;;;;;;;;5040522;28;20998;-69
2023/12/05 09:47:52;;;;;;;40.27;17.60;;;;;;;;;;5073726;28;20475;-73
2023/12/05 09:50:20;;;;;;;28.90;14.43;;;;;;;;;;5075819;28;20962;-69
2023/12/05 09:52:47;;;;;;;26.73;13.57;;;;;;;;;;5075246;28;20423;-71
2023/12/05 09:55:14;;;;;;;29.43;13.67;;;;;;;;;;5075545;28;20419;-72
2023/12/05 09:57:44;;;;;;;26.30;13.97;;;;;;;;;;5088586;28;20427;-70
2023/12/05 10:00:13;;;;;;;23.57;11.57;;;;;;;;;;5078093;28;20416;-70
2023/12/05 10:02:41;;;;;;;23.77;12.23;;;;;;;;;;5095448;28;20427;-70
2023/12/05 10:05:08;;;;;;;24.13;11.27;;;;;;;;;;5061044;28;20427;-70
2023/12/05 10:07:35;;;;;;;22.37;12.20;;;;;;;;;;5076875;28;20471;-70
2023/12/05 10:10:04;;;;;;;24.37;11.90;;;;;;;;;;5076810;28;20494;-70
2023/12/05 10:12:30;;;;;;;21.47;10.60;;;;;;;;;;5095331;28;20419;-71
2023/12/05 10:14:58;;;;;;;22.47;10.77;;;;;;;;;;5076801;28;20475;-72
2023/12/05 10:17:26;;;;;;;20.53;10.90;;;;;;;;;;5061801;28;20442;-71
2023/12/05 10:19:53;;;;;;;19.47;9.93;;;;;;;;;;5060446;28;20470;-71
2023/12/05 10:22:21;;;;;;;19.47;10.20;;;;;;;;;;5060001;28;20481;-71
2023/12/05 10:24:49;;;;;;;16.27;8.80;;;;;;;;;;5060223;28;20538;-69
2023/12/05 10:27:17;;;;;;;17.10;8.93;;;;;;;;;;5076883;28;20263;-70
2023/12/05 10:29:44;;;;;;;18.00;9.03;;;;;;;;;;5077575;28;20428;-74
2023/12/05 10:32:11;;;;;;;15.70;8.20;;;;;;;;;;5059962;28;20216;-70
2023/12/05 10:34:48;;;;;;;18.13;9.63;;;;;;;;;;5094345;28;20428;-72
2023/12/05 10:37:19;;;;;;;21.57;11.83;;;;;;;;;;5059911;28;20432;-72
2023/12/05 10:39:47;;;;;;;17.40;9.57;;;;;;;;;;5077376;28;20404;-73
2023/12/05 10:42:14;;;;;;;19.87;9.07;;;;;;;;;;5059922;28;20522;-72
2023/12/05 10:44:41;;;;;;;17.87;9.70;;;;;;;;;;5059890;28;20887;-74
2023/12/05 10:51:08;;;;;;;13.37;7.60;;;;;;;;;;5094174;28;20433;-73
2023/12/05 10:53:34;;;;;;;15.10;7.93;;;;;;;;;;5076715;28;20460;-66
2023/12/05 10:56:19;;;;;;;13.63;7.67;;;;;;;;;;5065561;28;20404;-67
2023/12/05 10:58:47;;;;;;;15.53;8.30;;;;;;;;;;5077108;28;20947;-66
2023/12/05 11:01:17;;;;;;;17.33;8.63;;;;;;;;;;5060483;28;20418;-66
2023/12/05 11:03:47;;;;;;;14.33;7.63;;;;;;;;;;5061317;28;20408;-67
2023/12/05 11:06:14;;;;;;;19.53;9.60;;;;;;;;;;5076925;28;20421;-66
2023/12/05 11:08:42;;;;;;;13.03;6.77;;;;;;;;;;5060902;28;20797;-66
2023/12/05 11:11:11;;;;;;;11.63;6.80;;;;;;;;;;5059883;28;20857;-67
2023/12/05 11:13:39;;;;;;;13.20;6.80;;;;;;;;;;5072357;28;20465;-67
2023/12/05 11:16:26;;;;;;;11.03;6.37;;;;;;;;;;5056199;28;20416;-68
2023/12/05 11:18:58;;;;;;;12.23;6.90;;;;;;;;;;5056789;28;20484;-68
2023/12/05 11:21:34;;;;;;;12.73;7.40;;;;;;;;;;5056384;28;20421;-65
2023/12/05 11:24:11;;;;;;;13.60;8.00;;;;;;;;;;5073822;28;20479;-65
2023/12/05 11:26:45;;;;;;;13.10;8.27;;;;;;;;;;5056362;28;20487;-65
2023/12/05 11:29:38;;;;;;;13.70;8.00;;;;;;;;;;5055722;28;20527;-66
2023/12/05 11:32:37;;;;;;;15.50;8.50;;;;;;;;;;5056099;28;20762;-66
2023/12/05 11:35:36;;;;;;;17.77;8.80;;;;;;;;;;5007010;28;20482;-67
2023/12/05 11:38:16;;;;;;;18.40;8.73;;;;;;;;;;5076088;28;20432;-67
2023/12/05 11:40:44;;;;;;;16.73;10.10;;;;;;;;;;5044437;28;20428;-67
2023/12/05 11:43:14;;;;;;;16.57;9.00;;;;;;;;;;5060339;28;20435;-66
2023/12/05 11:45:47;;;;;;;17.23;9.13;;;;;;;;;;5044734;28;20459;-67
2023/12/05 11:48:14;;;;;;;17.30;9.33;;;;;;;;;;5059969;28;20496;-67
2023/12/05 11:50:41;;;;;;;18.17;9.10;;;;;;;;;;5060941;28;20420;-67
2023/12/05 11:53:14;;;;;;;16.93;8.97;;;;;;;;;;5060355;28;20424;-66
2023/12/05 11:55:49;;;;;;;15.10;8.73;;;;;;;;;;5050835;28;20463;-66
2023/12/05 11:58:32;;;;;;;15.03;9.23;;;;;;;;;;5050999;28;20927;-67
2023/12/05 12:01:02;;;;;;;14.93;8.80;;;;;;;;;;5050878;28;20443;-68
2023/12/05 12:03:42;;;;;;;16.00;8.70;;;;;;;;;;5068713;28;20438;-68
2023/12/05 12:06:09;;;;;;;20.47;10.23;;;;;;;;;;5050193;28;20436;-67
2023/12/05 12:08:36;;;;;;;22.73;10.63;;;;;;;;;;5068716;28;20479;-67
2023/12/05 12:11:05;;;;;;;22.60;10.13;;;;;;;;;;5068920;28;20479;-67
2023/12/05 12:13:50;;;;;;;23.80;10.40;;;;;;;;;;5071750;28;20573;-67
2023/12/05 12:16:17;;;;;;;19.80;9.47;;;;;;;;;;5052677;28;20797;-66
2023/12/05 12:18:44;;;;;;;21.73;10.13;;;;;;;;;;5087849;28;20419;-67
2023/12/05 12:21:31;;;;;;;19.57;10.27;;;;;;;;;;5071099;28;20427;-67
2023/12/05 12:27:55;;;;;;;20.57;10.70;;;;;;;;;;5087292;28;20508;-66
2023/12/05 12:30:24;;;;;;;19.03;10.67;;;;;;;;;;5054645;28;20922;-66
2023/12/05 12:32:56;;;;;;;21.83;11.17;;;;;;;;;;5072976;28;20485;-67
2023/12/05 12:35:25;;;;;;;19.83;9.97;;;;;;;;;;5037222;28;20435;-67
2023/12/05 12:37:52;;;;;;;23.33;12.37;;;;;;;;;;5053334;28;20925;-67
2023/12/05 12:40:21;;;;;;;19.83;10.83;;;;;;;;;;5053450;28;20897;-67
2023/12/05 12:42:54;;;;;;;18.50;10.47;;;;;;;;;;5053666;28;20416;-65
2023/12/05 12:45:27;;;;;;;20.33;10.97;;;;;;;;;;5088067;28;20415;-67
2023/12/05 12:47:56;;;;;;;19.57;10.87;;;;;;;;;;5069413;28;20459;-66
2023/12/05 12:50:24;;;;;;;19.80;10.30;;;;;;;;;;5053327;28;20509;-67
2023/12/05 12:52:53;;;;;;;19.47;10.87;;;;;;;;;;5052640;28;20427;-65
2023/12/05 12:55:19;;;;;;;20.17;10.87;;;;;;;;;;5075545;28;20462;-65
2023/12/05 12:57:47;;;;;;;18.00;10.03;;;;;;;;;;5052304;28;20427;-65
2023/12/05 13:00:17;;;;;;;17.93;10.13;;;;;;;;;;5069295;28;20530;-66
2023/12/05 13:03:02;;;;;;;23.77;11.60;;;;;;;;;;5058148;28;20423;-67
2023/12/05 13:05:35;;;;;;;23.67;11.40;;;;;;;;;;5078314;28;20435;-66
2023/12/05 13:08:04;;;;;;;24.47;11.90;;;;;;;;;;5079557;28;20533;-64
2023/12/05 13:10:30;;;;;;;21.33;11.53;;;;;;;;;;5078438;28;20456;-65
2023/12/05 13:12:58;;;;;;;23.33;11.43;;;;;;;;;;5095822;28;20450;-65
2023/12/05 13:15:26;;;;;;;24.17;12.13;;;;;;;;;;5078528;28;20435;-65
2023/12/05 13:17:57;;;;;;;24.00;12.00;;;;;;;;;;5096332;28;20522;-65
2023/12/05 13:20:24;;;;;;;20.27;11.17;;;;;;;;;;5096785;28;20423;-65
2023/12/05 13:22:50;;;;;;;19.57;11.40;;;;;;;;;;5096639;28;20480;-65
2023/12/05 13:25:17;;;;;;;21.43;10.80;;;;;;;;;;5096662;28;20419;-65
2023/12/05 13:27:48;;;;;;;22.40;11.17;;;;;;;;;;5096839;28;20541;-65
2023/12/05 13:30:16;;;;;;;21.10;11.53;;;;;;;;;;5078157;28;20450;-65
2023/12/05 13:32:43;;;;;;;22.77;10.63;;;;;;;;;;5096162;28;20419;-65
2023/12/05 13:35:11;;;;;;;23.30;12.20;;;;;;;;;;5096120;28;20798;-65
2023/12/05 13:37:38;;;;;;;21.60;11.67;;;;;;;;;;5061447;28;20439;-65
2023/12/05 13:40:05;;;;;;;24.30;11.80;;;;;;;;;;5078432;28;20485;-65
2023/12/05 13:42:35;;;;;;;22.10;11.00;;;;;;;;;;5078701;28;20418;-65
2023/12/05 13:45:02;;;;;;;22.77;11.93;;;;;;;;;;5096472;28;20433;-65
2023/12/05 13:47:29;;;;;;;23.97;11.67;;;;;;;;;;5062122;28;20957;-65
2023/12/05 13:49:57;;;;;;;26.00;12.20;;;;;;;;;;5096199;28;20518;-65
2023/12/05 13:52:24;;;;;;;25.43;12.67;;;;;;;;;;5078539;28;20415;-65
2023/12/05 13:54:51;;;;;;;23.73;12.17;;;;;;;;;;5077693;28;20419;-66
2023/12/05 13:57:38;;;;;;;23.93;12.17;;;;;;;;;;5095500;28;20914;-65
2023/12/05 14:00:05;;;;;;;22.60;12.00;;;;;;;;;;5077575;28;20502;-65
2023/12/05 14:02:33;;;;;;;21.70;11.53;;;;;;;;;;5076807;28;20423;-65
2023/12/05 14:05:00;;;;;;;24.57;12.03;;;;;;;;;;5061024;28;20433;-66
2023/12/05 14:07:27;;;;;;;25.50;12.27;;;;;;;;;;5077442;28;20430;-65
2023/12/05 14:09:54;;;;;;;24.63;11.50;;;;;;;;;;5095471;28;20478;-64
2023/12/05 14:12:20;;;;;;;23.30;11.57;;;;;;;;;;5095497;28;20424;-65
2023/12/05 14:14:47;;;;;;;20.57;11.33;;;;;;;;;;5095349;28;20435;-65
2023/12/05 14:17:17;;;;;;;24.00;11.33;;;;;;;;;;5061564;28;20439;-65
2023/12/05 14:19:44;;;;;;;23.00;11.10;;;;;;;;;;5095168;28;20431;-65
2023/12/05 14:22:11;;;;;;;25.07;11.17;;;;;;;;;;5060948;28;20439;-65
2023/12/05 14:24:38;;;;;;;19.30;10.57;;;;;;;;;;5060623;28;20419;-66
2023/12/05 14:27:05;;;;;;;25.70;12.00;;;;;;;;;;5095117;28;20480;-65
2023/12/05 14:29:33;;;;;;;20.70;10.00;;;;;;;;;;5077237;28;20560;-65
2023/12/05 14:32:00;;;;;;;21.90;10.03;;;;;;;;;;5095434;28;20445;-65
2023/12/05 14:34:28;;;;;;;19.30;9.13;;;;;;;;;;5094030;28;20471;-65
2023/12/05 14:36:55;;;;;;;20.13;9.57;;;;;;;;;;5077337;28;20427;-67
2023/12/05 14:39:22;;;;;;;18.70;9.23;;;;;;;;;;5076649;28;20469;-66
2023/12/05 14:41:49;;;;;;;18.07;9.23;;;;;;;;;;5094770;28;20532;-66
2023/12/05 14:44:17;;;;;;;15.50;8.27;;;;;;;;;;5094410;28;20459;-67
2023/12/05 14:47:02;;;;;;;11.90;6.60;;;;;;;;;;5094827;28;20707;-67
2023/12/05 14:49:29;;;;;;;11.33;5.80;;;;;;;;;;5060033;28;20525;-67
2023/12/05 14:51:55;;;;;;;12.47;6.70;;;;;;;;;;5076332;28;20471;-67
2023/12/05 14:54:24;;;;;;;15.00;7.53;;;;;;;;;;5076129;28;20889;-67
2023/12/05 14:56:51;;;;;;;15.43;7.77;;;;;;;;;;5077017;28;20514;-67
2023/12/05 14:59:18;;;;;;;16.93;7.80;;;;;;;;;;5076861;28;20412;-67
2023/12/05 15:01:44;;;;;;;14.30;7.67;;;;;;;;;;5076642;28;20967;-67
2023/12/05 15:04:11;;;;;;;15.30;7.93;;;;;;;;;;5060129;28;20490;-67
2023/12/05 15:06:38;;;;;;;14.17;7.77;;;;;;;;;;5094581;28;20894;-67
2023/12/05 15:09:05;;;;;;;13.70;7.23;;;;;;;;;;5074533;28;20459;-67
2023/12/05 15:11:33;;;;;;;14.77;7.03;;;;;;;;;;5076179;28;20501;-67
2023/12/05 15:14:00;;;;;;;14.23;7.80;;;;;;;;;;5076278;28;20497;-67
2023/12/05 15:16:27;;;;;;;14.90;7.83;;;;;;;;;;5060295;28;20424;-67